createdAt,value
2018-11-04T00:01:53.611Z,9.27
2018-11-04T00:04:21.749Z,9.73
2018-11-04T00:06:49.370Z,9.23
2018-11-04T00:09:17.251Z,9.13
2018-11-04T00:11:44.836Z,8.53
2018-11-04T00:14:12.817Z,9.13
2018-11-04T00:16:40.485Z,9.57
2018-11-04T00:19:08.363Z,9.20
2018-11-04T00:21:36.238Z,9.77
2018-11-04T00:24:04.494Z,8.90
2018-11-04T00:26:32.099Z,9.33
2018-11-04T00:28:59.663Z,9.20
2018-11-04T00:31:27.579Z,10.10
2018-11-04T00:33:55.105Z,9.37
2018-11-04T00:36:22.680Z,10.07
2018-11-04T00:38:50.276Z,10.40
2018-11-04T00:41:17.894Z,8.70
2018-11-04T00:43:45.493Z,10.40
2018-11-04T00:46:13.242Z,9.30
2018-11-04T00:48:40.914Z,9.77
2018-11-04T00:51:08.461Z,9.97
2018-11-04T00:53:36.076Z,10.20
2018-11-04T00:56:03.631Z,9.87
2018-11-04T00:58:31.227Z,9.80
2018-11-04T01:00:58.812Z,9.90
2018-11-04T01:03:26.516Z,10.13
2018-11-04T01:05:54.240Z,10.27
2018-11-04T01:08:22.014Z,9.77
2018-11-04T01:10:49.563Z,10.03
2018-11-04T01:13:17.146Z,9.97
2018-11-04T01:15:45.817Z,9.33
2018-11-04T01:18:15.438Z,9.53
2018-11-04T01:20:43.040Z,9.30
2018-11-04T01:23:10.603Z,10.17
2018-11-04T01:25:38.142Z,9.57
2018-11-04T01:28:05.710Z,9.83
2018-11-04T01:30:33.237Z,9.93
2018-11-04T01:33:00.830Z,11.13
2018-11-04T01:35:28.432Z,10.93
2018-11-04T01:37:56.154Z,10.63
2018-11-04T01:40:23.772Z,10.57
2018-11-04T01:42:51.428Z,9.53
2018-11-04T01:45:19.062Z,10.20
2018-11-04T01:47:46.640Z,11.00
2018-11-04T01:50:14.313Z,10.80
2018-11-04T01:52:41.895Z,10.00
2018-11-04T01:55:09.481Z,10.33
2018-11-04T01:57:37.042Z,10.17
2018-11-04T02:00:04.632Z,10.47
2018-11-04T02:02:32.147Z,10.67
2018-11-04T02:04:59.735Z,10.90
2018-11-04T02:07:27.280Z,10.60
2018-11-04T02:09:54.869Z,11.00
2018-11-04T02:12:22.406Z,11.13
2018-11-04T02:14:49.969Z,12.07
2018-11-04T02:17:17.539Z,12.60
2018-11-04T02:19:45.138Z,12.10
2018-11-04T02:22:12.713Z,11.77
2018-11-04T02:24:40.250Z,13.10
2018-11-04T02:27:07.808Z,11.67
2018-11-04T02:29:35.348Z,11.67
2018-11-04T02:32:02.958Z,11.70
2018-11-04T02:34:30.529Z,12.47
2018-11-04T02:36:58.255Z,12.27
2018-11-04T02:39:25.837Z,11.33
2018-11-04T02:41:53.383Z,11.90
2018-11-04T02:44:20.993Z,11.90
2018-11-04T02:46:48.624Z,12.93
2018-11-04T02:49:16.165Z,12.57
2018-11-04T02:51:43.683Z,12.53
2018-11-04T02:54:11.367Z,12.17
2018-11-04T02:56:39.137Z,12.20
2018-11-04T02:59:06.670Z,11.80
2018-11-04T03:01:34.228Z,12.73
2018-11-04T03:04:01.788Z,13.03
2018-11-04T03:06:29.432Z,12.63
2018-11-04T03:08:57.067Z,12.97
2018-11-04T03:11:24.607Z,13.60
2018-11-04T03:13:52.268Z,12.97
2018-11-04T03:16:20.691Z,13.10
2018-11-04T03:18:48.393Z,13.77
2018-11-04T03:21:15.925Z,14.20
2018-11-04T03:23:43.658Z,13.00
2018-11-04T03:26:11.200Z,13.90
2018-11-04T03:28:38.908Z,12.97
2018-11-04T03:31:06.629Z,14.80
2018-11-04T03:33:34.548Z,13.93
2018-11-04T03:36:02.151Z,14.47
2018-11-04T03:38:29.735Z,13.80
2018-11-04T03:40:57.364Z,13.47
2018-11-04T03:43:24.875Z,13.43
2018-11-04T03:45:52.436Z,14.83
2018-11-04T03:48:20.050Z,14.00
2018-11-04T03:50:47.586Z,13.80
2018-11-04T03:53:15.346Z,15.33
2018-11-04T03:55:43.023Z,14.57
2018-11-04T03:58:10.616Z,14.33
2018-11-04T04:00:38.248Z,15.17
2018-11-04T04:03:05.797Z,15.23
2018-11-04T04:05:33.419Z,15.43
2018-11-04T04:08:00.962Z,14.13
2018-11-04T04:10:29.273Z,14.73
2018-11-04T04:12:56.853Z,14.10
2018-11-04T04:15:25.494Z,15.97
2018-11-04T04:17:53.066Z,14.80
2018-11-04T04:20:20.666Z,15.43
2018-11-04T04:22:48.238Z,15.17
2018-11-04T04:25:15.813Z,15.10
2018-11-04T04:27:43.356Z,14.63
2018-11-04T04:30:10.940Z,14.43
2018-11-04T04:32:38.584Z,14.13
2018-11-04T04:35:06.180Z,13.77
2018-11-04T04:37:33.831Z,14.23
2018-11-04T04:40:01.400Z,15.50
2018-11-04T04:42:29.288Z,15.33
2018-11-04T04:44:56.974Z,15.33
2018-11-04T04:47:24.600Z,15.73
2018-11-04T04:49:52.125Z,14.93
2018-11-04T04:52:19.705Z,15.97
2018-11-04T04:54:47.275Z,15.60
2018-11-04T04:57:14.868Z,16.20
2018-11-04T04:59:42.464Z,15.63
2018-11-04T05:02:10.054Z,15.63
2018-11-04T05:04:37.748Z,15.37
2018-11-04T05:07:05.320Z,16.33
2018-11-04T05:09:32.987Z,14.87
2018-11-04T05:12:00.526Z,16.53
2018-11-04T05:14:28.235Z,15.80
2018-11-04T05:16:55.804Z,16.93
2018-11-04T05:19:23.337Z,16.10
2018-11-04T05:21:50.906Z,16.27
2018-11-04T05:24:18.687Z,15.87
2018-11-04T05:26:46.209Z,16.90
2018-11-04T05:29:13.891Z,16.80
2018-11-04T05:31:41.461Z,16.13
2018-11-04T05:34:09.025Z,16.53
2018-11-04T05:36:36.599Z,15.90
2018-11-04T05:39:04.150Z,16.33
2018-11-04T05:41:31.669Z,17.00
2018-11-04T05:43:59.240Z,17.40
2018-11-04T05:46:26.866Z,15.70
2018-11-04T05:48:54.423Z,16.50
2018-11-04T05:51:21.973Z,17.20
2018-11-04T05:53:49.545Z,16.97
2018-11-04T05:56:17.098Z,17.40
2018-11-04T05:58:44.687Z,17.90
2018-11-04T06:01:12.377Z,16.60
2018-11-04T06:03:40.363Z,16.47
2018-11-04T06:06:07.937Z,15.77
2018-11-04T06:08:35.491Z,16.93
2018-11-04T06:11:03.131Z,17.33
2018-11-04T06:13:30.680Z,17.77
2018-11-04T06:15:58.391Z,17.20
2018-11-04T06:18:25.917Z,17.03
2018-11-04T06:20:53.909Z,18.20
2018-11-04T06:23:21.466Z,17.27
2018-11-04T06:25:49.042Z,17.37
2018-11-04T06:28:16.590Z,17.00
2018-11-04T06:30:44.347Z,17.10
2018-11-04T06:33:11.877Z,17.30
2018-11-04T06:35:39.439Z,19.13
2018-11-04T06:38:06.999Z,17.17
2018-11-04T06:40:34.800Z,17.23
2018-11-04T06:43:02.349Z,18.27
2018-11-04T06:45:29.913Z,18.63
2018-11-04T06:47:57.507Z,19.23
2018-11-04T06:50:25.096Z,18.23
2018-11-04T06:52:52.714Z,19.10
2018-11-04T06:55:20.268Z,18.27
2018-11-04T06:57:47.826Z,18.67
2018-11-04T07:00:15.379Z,17.73
2018-11-04T07:02:43.124Z,19.73
2018-11-04T07:05:11.246Z,18.27
2018-11-04T07:07:42.637Z,17.77
2018-11-04T07:10:10.725Z,19.37
2018-11-04T07:12:38.726Z,19.73
2018-11-04T07:15:06.293Z,18.33
2018-11-04T07:17:33.920Z,18.77
2018-11-04T07:20:01.539Z,17.53
2018-11-04T07:22:29.142Z,18.67
2018-11-04T07:24:56.742Z,18.90
2018-11-04T07:27:24.368Z,20.27
2018-11-04T07:29:52.239Z,20.20
2018-11-04T07:32:20.010Z,20.60
2018-11-04T07:34:47.685Z,19.73
2018-11-04T07:37:15.900Z,21.37
2018-11-04T07:39:43.866Z,19.93
2018-11-04T07:42:11.705Z,20.57
2018-11-04T07:44:39.354Z,19.67
2018-11-04T07:47:06.984Z,20.13
2018-11-04T07:49:34.670Z,20.60
2018-11-04T07:52:02.311Z,19.77
2018-11-04T07:54:30.134Z,21.10
2018-11-04T07:56:58.057Z,19.67
2018-11-04T07:59:25.697Z,22.33
2018-11-04T08:01:53.676Z,21.53
2018-11-04T08:04:21.300Z,20.10
2018-11-04T08:06:50.361Z,20.23
2018-11-04T08:09:18.570Z,20.10
2018-11-04T08:11:46.354Z,22.03
2018-11-04T08:14:13.934Z,18.90
2018-11-04T08:16:41.895Z,20.33
2018-11-04T08:19:09.595Z,19.90
2018-11-04T08:21:37.243Z,21.67
2018-11-04T08:24:05.032Z,20.80
2018-11-04T08:26:32.766Z,20.33
2018-11-04T08:29:00.538Z,21.53
2018-11-04T08:31:28.245Z,19.03
2018-11-04T08:33:56.037Z,19.13
2018-11-04T08:36:23.841Z,18.87
2018-11-04T08:38:51.423Z,20.17
2018-11-04T08:41:19.085Z,22.70
2018-11-04T08:43:46.844Z,21.03
2018-11-04T08:46:14.672Z,22.10
2018-11-04T08:48:42.544Z,20.77
2018-11-04T08:51:10.098Z,22.33
2018-11-04T08:53:37.702Z,20.93
2018-11-04T08:56:05.268Z,20.07
2018-11-04T08:58:32.834Z,21.67
2018-11-04T09:01:00.368Z,20.00
2018-11-04T09:03:27.988Z,20.23
2018-11-04T09:05:55.519Z,21.73
2018-11-04T09:08:23.051Z,20.90
2018-11-04T09:10:50.700Z,21.23
2018-11-04T09:13:18.444Z,21.03
2018-11-04T09:15:46.000Z,20.43
2018-11-04T09:18:13.569Z,19.97
2018-11-04T09:20:41.102Z,20.47
2018-11-04T09:23:08.709Z,21.37
2018-11-04T09:25:36.277Z,20.63
2018-11-04T09:28:03.866Z,20.80
2018-11-04T09:30:31.534Z,20.30
2018-11-04T09:32:59.065Z,19.50
2018-11-04T09:35:26.995Z,20.10
2018-11-04T09:37:54.404Z,21.07
2018-11-04T09:40:21.938Z,20.97
2018-11-04T09:42:49.517Z,20.77
2018-11-04T09:45:17.083Z,22.03
2018-11-04T09:47:44.599Z,22.20
2018-11-04T09:50:12.144Z,20.97
2018-11-04T09:52:39.736Z,20.60
2018-11-04T09:55:07.407Z,21.10
2018-11-04T09:57:35.143Z,21.47
2018-11-04T10:00:02.994Z,21.03
2018-11-04T10:02:30.665Z,19.87
2018-11-04T10:04:58.311Z,22.63
2018-11-04T10:07:25.894Z,22.03
2018-11-04T10:09:53.691Z,20.77
2018-11-04T10:12:21.424Z,21.77
2018-11-04T10:14:49.010Z,22.47
2018-11-04T10:17:16.560Z,20.77
2018-11-04T10:19:44.305Z,21.73
2018-11-04T10:22:11.739Z,21.30
2018-11-04T10:24:39.325Z,20.67
2018-11-04T10:27:06.840Z,20.57
2018-11-04T10:29:34.382Z,22.13
2018-11-04T10:32:01.980Z,21.27
2018-11-04T10:34:29.576Z,23.00
2018-11-04T10:36:57.099Z,21.47
2018-11-04T10:39:24.665Z,21.93
2018-11-04T10:41:52.254Z,21.87
2018-11-04T10:44:19.855Z,21.97
2018-11-04T10:46:47.529Z,21.10
2018-11-04T10:49:15.231Z,22.30
2018-11-04T10:51:42.815Z,21.23
2018-11-04T10:54:10.341Z,22.67
2018-11-04T10:56:37.881Z,22.70
2018-11-04T10:59:05.930Z,21.93
2018-11-04T11:01:33.524Z,23.30
2018-11-04T11:04:01.174Z,20.97
2018-11-04T11:06:28.889Z,22.57
2018-11-04T11:08:56.422Z,21.47
2018-11-04T11:11:23.999Z,21.77
2018-11-04T11:13:51.541Z,21.37
2018-11-04T11:16:19.366Z,21.27
2018-11-04T11:18:47.132Z,21.63
2018-11-04T11:21:14.904Z,22.27
2018-11-04T11:23:42.682Z,23.27
2018-11-04T11:26:10.261Z,22.07
2018-11-04T11:28:37.811Z,21.13
2018-11-04T11:31:05.377Z,22.67
2018-11-04T11:33:32.974Z,22.00
2018-11-04T11:36:00.513Z,21.13
2018-11-04T11:38:28.144Z,21.73
2018-11-04T11:40:59.137Z,20.70
2018-11-04T11:43:26.758Z,21.77
2018-11-04T11:45:54.379Z,20.63
2018-11-04T11:48:21.997Z,22.03
2018-11-04T11:50:49.591Z,20.77
2018-11-04T11:53:17.200Z,21.67
2018-11-04T11:55:44.835Z,20.53
2018-11-04T11:58:12.366Z,21.57
2018-11-04T12:00:40.121Z,15.07
2018-11-04T12:03:07.705Z,17.33
2018-11-04T12:05:35.327Z,20.47
2018-11-04T12:08:02.903Z,19.90
2018-11-04T12:10:30.558Z,20.20
2018-11-04T12:12:58.097Z,19.47
2018-11-04T12:15:25.673Z,20.53
2018-11-04T12:17:53.309Z,19.13
2018-11-04T12:20:20.870Z,21.87
2018-11-04T12:22:48.664Z,19.43
2018-11-04T12:25:16.541Z,21.30
2018-11-04T12:27:44.125Z,20.40
2018-11-04T12:30:11.745Z,20.30
2018-11-04T12:32:39.324Z,20.43
2018-11-04T12:35:06.967Z,20.77
2018-11-04T12:37:34.545Z,20.23
2018-11-04T12:40:02.197Z,20.50
2018-11-04T12:42:29.960Z,20.17
2018-11-04T12:44:57.571Z,19.57
2018-11-04T12:47:25.088Z,19.23
2018-11-04T12:49:52.618Z,18.70
2018-11-04T12:52:20.508Z,19.87
2018-11-04T12:54:48.028Z,19.80
2018-11-04T12:57:15.608Z,18.30
2018-11-04T12:59:43.173Z,18.60
2018-11-04T13:02:10.947Z,18.17
2018-11-04T13:04:38.408Z,18.67
2018-11-04T13:07:06.006Z,18.10
2018-11-04T13:09:33.717Z,18.10
2018-11-04T13:12:01.283Z,19.30
2018-11-04T13:14:28.825Z,18.20
2018-11-04T13:16:56.552Z,18.97
2018-11-04T13:19:24.125Z,18.50
2018-11-04T13:21:51.782Z,18.57
2018-11-04T13:24:19.304Z,17.90
2018-11-04T13:26:46.894Z,16.67
2018-11-04T13:29:14.432Z,17.50
2018-11-04T13:31:42.013Z,16.63
2018-11-04T13:34:09.597Z,18.07
2018-11-04T13:36:37.140Z,17.03
2018-11-04T13:39:04.741Z,17.43
2018-11-04T13:41:32.343Z,17.70
2018-11-04T13:43:59.992Z,17.23
2018-11-04T13:46:27.574Z,17.30
2018-11-04T13:48:55.131Z,17.20
2018-11-04T13:51:22.815Z,17.33
2018-11-04T13:53:50.438Z,17.93
2018-11-04T13:56:18.087Z,15.40
2018-11-04T13:58:45.690Z,16.70
2018-11-04T14:01:13.291Z,17.30
2018-11-04T14:03:40.834Z,17.33
2018-11-04T14:06:08.420Z,17.20
2018-11-04T14:08:35.960Z,16.63
2018-11-04T14:11:03.506Z,16.60
2018-11-04T14:13:31.131Z,16.63
2018-11-04T14:15:58.699Z,16.77
2018-11-04T14:18:26.234Z,15.77
2018-11-04T14:20:59.831Z,15.27
2018-11-04T14:31:22.444Z,16.57
2018-11-04T14:33:50.188Z,17.27
2018-11-04T14:36:17.761Z,17.07
2018-11-04T14:38:45.316Z,15.07
2018-11-04T14:41:12.926Z,14.80
2018-11-04T14:43:45.466Z,15.50
2018-11-04T14:46:13.041Z,15.87
2018-11-04T14:48:40.767Z,14.43
2018-11-04T14:51:22.173Z,15.77
2018-11-04T14:59:23.424Z,14.63
2018-11-04T15:01:51.066Z,14.40
2018-11-04T15:04:18.566Z,14.97
2018-11-04T15:06:46.178Z,14.23
2018-11-04T15:09:19.493Z,14.67
2018-11-04T15:14:38.868Z,15.83
2018-11-04T15:17:06.445Z,15.60
2018-11-04T15:19:34.048Z,13.53
2018-11-04T15:22:01.635Z,14.07
2018-11-04T15:24:29.217Z,14.47
2018-11-04T15:26:56.803Z,14.43
2018-11-04T15:29:24.376Z,14.40
2018-11-04T15:31:51.915Z,13.47
2018-11-04T15:34:19.577Z,13.17
2018-11-04T15:36:47.087Z,13.57
2018-11-04T15:39:14.670Z,13.87
2018-11-04T15:41:42.259Z,12.43
2018-11-04T15:44:09.805Z,12.70
2018-11-04T15:46:37.383Z,12.93
2018-11-04T15:49:05.020Z,13.07
2018-11-04T15:51:33.241Z,11.70
2018-11-04T15:54:01.929Z,12.47
2018-11-04T15:56:29.989Z,12.53
2018-11-04T15:58:58.421Z,11.97
2018-11-04T16:01:26.260Z,12.53
2018-11-04T16:03:53.943Z,11.73
2018-11-04T16:06:21.552Z,12.80
2018-11-04T16:08:49.115Z,13.73
2018-11-04T16:11:16.971Z,12.77
2018-11-04T16:13:44.628Z,13.00
2018-11-04T16:16:12.353Z,12.20
2018-11-04T16:18:40.094Z,11.93
2018-11-04T16:21:07.670Z,11.90
2018-11-04T16:23:35.713Z,11.83
2018-11-04T16:26:03.634Z,13.93
2018-11-04T16:28:31.340Z,12.97
2018-11-04T16:30:58.942Z,10.97
2018-11-04T16:33:26.686Z,12.43
2018-11-04T16:35:54.211Z,11.70
2018-11-04T16:38:22.845Z,14.20
2018-11-04T16:40:50.419Z,14.30
2018-11-04T16:43:18.470Z,11.67
2018-11-04T16:45:46.240Z,10.97
2018-11-04T16:48:14.071Z,11.67
2018-11-04T16:50:46.171Z,10.60
2018-11-04T16:53:14.655Z,10.10
2018-11-04T17:01:04.233Z,10.80
2018-11-04T17:03:34.163Z,11.50
2018-11-04T17:06:01.827Z,11.00
2018-11-04T17:08:29.423Z,11.27
2018-11-04T17:10:57.047Z,10.87
2018-11-04T17:13:24.622Z,10.30
2018-11-04T17:15:52.313Z,11.37
2018-11-04T17:18:20.028Z,11.30
2018-11-04T17:20:47.566Z,10.23
2018-11-04T17:23:15.179Z,11.30
2018-11-04T17:25:42.802Z,10.73
2018-11-04T17:28:10.401Z,10.40
2018-11-04T17:30:38.024Z,11.20
2018-11-04T17:33:05.766Z,10.33
2018-11-04T17:35:33.348Z,10.07
2018-11-04T17:38:00.977Z,11.07
2018-11-04T17:40:28.528Z,10.53
2018-11-04T17:42:56.209Z,10.53
2018-11-04T17:45:23.775Z,9.87
2018-11-04T17:47:51.364Z,11.83
2018-11-04T17:50:18.903Z,11.53
2018-11-04T17:52:46.460Z,10.90
2018-11-04T17:55:14.018Z,11.37
2018-11-04T17:57:41.541Z,12.93
2018-11-04T18:00:09.129Z,12.40
2018-11-04T18:02:36.812Z,11.87
2018-11-04T18:05:04.407Z,11.33
2018-11-04T18:07:32.178Z,11.10
2018-11-04T18:09:59.832Z,11.50
2018-11-04T18:12:27.569Z,10.57
2018-11-04T18:14:55.294Z,10.80
2018-11-04T18:17:22.866Z,10.83
2018-11-04T18:19:50.604Z,11.00
2018-11-04T18:22:18.364Z,10.00
2018-11-04T18:24:45.903Z,10.23
2018-11-04T18:27:13.490Z,9.70
2018-11-04T18:29:41.046Z,10.80
2018-11-04T18:32:08.692Z,9.73
2018-11-04T18:34:36.195Z,10.20
2018-11-04T18:37:03.772Z,10.80
2018-11-04T18:39:31.285Z,9.57
2018-11-04T18:41:58.906Z,9.93
2018-11-04T18:44:26.510Z,10.00
2018-11-04T18:46:54.026Z,10.00
2018-11-04T18:49:21.572Z,10.47
2018-11-04T18:51:49.331Z,8.77
2018-11-04T18:54:16.895Z,9.60
2018-11-04T18:56:44.425Z,9.60
2018-11-04T18:59:12.067Z,10.20
2018-11-04T19:01:39.579Z,9.57
2018-11-04T19:04:07.131Z,9.60
2018-11-04T19:06:34.747Z,9.70
2018-11-04T19:09:02.290Z,10.20
2018-11-04T19:11:30.004Z,10.23
2018-11-04T19:13:57.708Z,9.23
2018-11-04T19:16:25.529Z,8.97
2018-11-04T19:18:53.390Z,9.97
2018-11-04T19:21:20.989Z,9.60
2018-11-04T19:23:48.555Z,10.27
2018-11-04T19:26:16.317Z,10.90
2018-11-04T19:28:44.490Z,9.40
2018-11-04T19:31:12.214Z,10.00
2018-11-04T19:33:43.388Z,10.20
2018-11-04T19:36:11.003Z,10.60
2018-11-04T19:38:38.557Z,9.83
2018-11-04T19:41:06.186Z,10.93
2018-11-04T19:43:33.779Z,10.50
2018-11-04T19:46:01.322Z,10.60
2018-11-04T19:48:30.134Z,9.77
2018-11-04T19:50:57.936Z,10.67
2018-11-04T19:53:25.683Z,10.63
2018-11-04T19:55:55.661Z,10.57
2018-11-04T19:58:23.325Z,10.60
2018-11-04T20:00:54.730Z,10.80
2018-11-04T20:03:22.318Z,11.10
2018-11-04T20:05:50.016Z,10.97
2018-11-04T20:08:17.582Z,11.23
2018-11-04T20:10:46.549Z,13.23
2018-11-04T20:13:14.228Z,14.67
2018-11-04T20:15:41.776Z,11.93
2018-11-04T20:18:09.353Z,9.60
2018-11-04T20:20:36.936Z,9.40
2018-11-04T20:23:04.519Z,9.43
2018-11-04T20:25:37.711Z,9.00
2018-11-04T20:28:06.623Z,9.57
2018-11-04T20:30:34.153Z,9.87
2018-11-04T20:33:01.725Z,9.47
2018-11-04T20:35:29.276Z,9.20
2018-11-04T20:37:56.860Z,8.73
2018-11-04T20:40:39.285Z,8.70
2018-11-04T20:43:06.897Z,9.00
2018-11-04T20:45:34.425Z,9.07
2018-11-04T20:48:02.044Z,8.80
2018-11-04T20:50:46.249Z,9.03
2018-11-04T20:53:14.420Z,9.43
2018-11-04T20:55:42.225Z,10.07
2018-11-04T20:58:09.869Z,9.40
2018-11-04T21:00:37.432Z,8.73
2018-11-04T21:03:09.628Z,9.73
2018-11-04T21:05:37.179Z,9.73
2018-11-04T21:08:04.793Z,9.70
2018-11-04T21:10:32.344Z,9.53
2018-11-04T21:13:00.117Z,9.70
2018-11-04T21:15:27.680Z,10.50
2018-11-04T21:17:55.442Z,10.10
2018-11-04T21:20:23.069Z,9.47
2018-11-04T21:22:50.730Z,8.93
2018-11-04T21:25:18.347Z,9.10
2018-11-04T21:27:45.924Z,8.93
2018-11-04T21:30:13.668Z,9.80
2018-11-04T21:32:41.237Z,9.50
2018-11-04T21:35:08.791Z,9.53
2018-11-04T21:37:36.367Z,9.93
2018-11-04T21:40:04.169Z,9.63
2018-11-04T21:42:32.147Z,9.57
2018-11-04T21:44:59.712Z,10.07
2018-11-04T21:47:29.260Z,9.17
2018-11-04T21:49:56.856Z,8.67
2018-11-04T21:52:24.391Z,8.43
2018-11-04T21:54:53.931Z,8.83
2018-11-04T21:57:21.478Z,8.80
2018-11-04T21:59:49.057Z,9.63
2018-11-04T22:02:16.851Z,10.33
2018-11-04T22:04:44.773Z,9.43
2018-11-04T22:07:12.388Z,9.37
2018-11-04T22:09:39.948Z,12.27
2018-11-04T22:12:07.523Z,12.07
2018-11-04T22:14:35.100Z,9.50
2018-11-04T22:17:03.682Z,9.37
2018-11-04T22:19:31.272Z,9.43
2018-11-04T22:21:58.799Z,9.50
2018-11-04T22:24:26.356Z,9.53
2018-11-04T22:26:53.923Z,10.50
2018-11-04T22:29:21.466Z,10.07
2018-11-04T22:31:48.989Z,9.90
2018-11-04T22:34:16.560Z,9.20
2018-11-04T22:36:44.200Z,9.63
2018-11-04T22:39:11.701Z,9.07
2018-11-04T22:41:39.278Z,9.83
2018-11-04T22:44:06.984Z,10.23
2018-11-04T22:46:34.758Z,9.00
2018-11-04T22:49:02.294Z,9.13
2018-11-04T22:51:29.989Z,9.23
2018-11-04T22:53:57.562Z,9.63
2018-11-04T22:56:25.124Z,9.80
2018-11-04T22:58:52.700Z,8.93
2018-11-04T23:01:20.263Z,8.20
2018-11-04T23:03:47.878Z,8.53
2018-11-04T23:06:15.404Z,9.03
2018-11-04T23:08:43.093Z,8.40
2018-11-04T23:11:10.700Z,8.77
2018-11-04T23:13:38.346Z,9.10
2018-11-04T23:16:05.876Z,9.07
2018-11-04T23:18:33.663Z,9.20
2018-11-04T23:21:01.145Z,8.73
2018-11-04T23:23:28.684Z,8.83
2018-11-04T23:25:56.255Z,8.27
2018-11-04T23:28:24.032Z,9.00
2018-11-04T23:30:51.543Z,8.37
2018-11-04T23:33:19.142Z,8.70
2018-11-04T23:35:49.525Z,9.20
2018-11-04T23:38:17.067Z,9.13
2018-11-04T23:40:44.627Z,9.17
2018-11-04T23:43:12.190Z,9.33
2018-11-04T23:45:39.905Z,9.37
2018-11-04T23:48:07.467Z,8.23
2018-11-04T23:50:35.093Z,8.60
2018-11-04T23:53:02.675Z,8.40
2018-11-04T23:55:30.266Z,9.23
2018-11-04T23:57:57.852Z,8.83
